Time;durP1;ratioP1;P1;durP2;ratioP2;P2;SDS_P1;SDS_P2;PMS_P1;PMS_P2;Temp;Humidity;BMP_temperature;BMP_pressure;BME280_temperature;BME280_humidity;BME280_pressure;Samples;Min_cycle;Max_cycle;Signal;HPM_P1;HPM_P2
2021/10/04 00:00:12;;;;;;;21.37;14.28;;;;;;;9.42;57.55;100630.59;1771277;79;21018;-40
2021/10/04 00:02:39;;;;;;;24.23;13.65;;;;;;;9.42;57.60;100632.51;1772512;81;21302;-40
2021/10/04 00:05:07;;;;;;;22.45;13.70;;;;;;;9.39;57.59;100634.52;1768990;81;21030;-40
2021/10/04 00:07:34;;;;;;;23.92;15.00;;;;;;;9.38;57.71;100635.06;1751971;81;21113;-40
2021/10/04 00:10:03;;;;;;;21.02;14.05;;;;;;;9.37;58.10;100628.06;1766063;81;21027;-40
2021/10/04 00:12:31;;;;;;;25.62;13.88;;;;;;;9.36;58.41;100621.59;1766171;81;20977;-40
2021/10/04 00:14:58;;;;;;;21.52;13.85;;;;;;;9.37;58.42;100627.26;1766025;81;21091;-40
2021/10/04 00:17:26;;;;;;;24.50;14.30;;;;;;;9.36;58.22;100631.08;1760806;79;20985;-40
2021/10/04 00:19:53;;;;;;;22.77;16.30;;;;;;;9.36;58.22;100622.95;1772602;81;21754;-40
2021/10/04 00:22:19;;;;;;;23.67;15.23;;;;;;;9.35;58.05;100622.16;1772545;81;21034;-40
2021/10/04 00:24:48;;;;;;;26.10;15.83;;;;;;;9.35;57.98;100610.53;1775219;79;20934;-40
2021/10/04 00:27:14;;;;;;;20.95;14.83;;;;;;;9.36;57.93;100606.72;1796477;79;20981;-40
2021/10/04 00:29:41;;;;;;;27.85;14.75;;;;;;;9.35;58.00;100601.86;1779276;79;21037;-40
2021/10/04 00:32:08;;;;;;;22.05;15.43;;;;;;;9.33;58.02;100600.05;1772442;80;21833;-40
2021/10/04 00:34:35;;;;;;;22.67;15.93;;;;;;;9.34;58.17;100602.20;1766969;81;20999;-40
2021/10/04 00:37:01;;;;;;;21.27;15.40;;;;;;;9.35;58.14;100604.56;1769399;81;21029;-40
2021/10/04 00:39:30;;;;;;;23.87;15.63;;;;;;;9.36;58.01;100604.01;1772405;81;21587;-40
2021/10/04 00:41:56;;;;;;;23.87;15.35;;;;;;;9.38;57.97;100601.23;1748757;79;21061;-40
2021/10/04 00:44:23;;;;;;;25.02;17.00;;;;;;;9.40;57.84;100600.89;1771472;81;21216;-40
2021/10/04 00:46:50;;;;;;;27.15;16.87;;;;;;;9.41;57.94;100596.52;1772164;81;21017;-40
2021/10/04 00:49:16;;;;;;;23.85;17.25;;;;;;;9.42;58.09;100610.86;1766660;81;21539;-40
2021/10/04 00:51:42;;;;;;;25.23;16.42;;;;;;;9.40;58.22;100610.37;1767349;81;21112;-40
2021/10/04 00:54:09;;;;;;;24.18;16.48;;;;;;;9.39;58.35;100619.04;1754378;81;21017;-40
2021/10/04 00:56:36;;;;;;;23.65;16.55;;;;;;;9.39;58.44;100618.27;1757153;79;21060;-40
2021/10/04 00:59:02;;;;;;;26.25;16.48;;;;;;;9.39;58.59;100625.81;1741756;81;21876;-40
2021/10/04 01:01:30;;;;;;;26.55;16.70;;;;;;;9.40;58.75;100619.84;1741764;82;21606;-40
2021/10/04 01:04:01;;;;;;;24.15;15.58;;;;;;;9.41;59.03;100616.02;1708726;82;21041;-40
2021/10/04 01:06:28;;;;;;;24.95;14.28;;;;;;;9.39;59.14;100602.80;1698531;84;20998;-40
2021/10/04 01:08:55;;;;;;;24.05;15.55;;;;;;;9.44;58.93;100600.52;1719848;83;21505;-40
2021/10/04 01:11:22;;;;;;;25.27;15.70;;;;;;;9.48;58.80;100605.52;1727444;83;21086;-40
2021/10/04 01:13:49;;;;;;;24.87;15.72;;;;;;;9.50;58.64;100602.71;1727290;83;21065;-40
2021/10/04 01:16:15;;;;;;;23.50;15.95;;;;;;;9.51;58.34;100602.16;1709634;83;21049;-40
2021/10/04 01:18:43;;;;;;;26.82;16.20;;;;;;;9.52;58.22;100609.16;1698344;83;21520;-41
2021/10/04 01:21:10;;;;;;;25.30;16.12;;;;;;;9.52;58.49;100614.03;1699512;83;21813;-40
2021/10/04 01:23:36;;;;;;;26.87;15.65;;;;;;;9.53;58.58;100612.12;1716541;83;20942;-40
2021/10/04 01:26:03;;;;;;;22.50;14.98;;;;;;;9.21;58.74;100566.63;1710873;83;21017;-40
2021/10/04 01:28:30;;;;;;;26.40;15.85;;;;;;;9.53;58.79;100616.17;1727709;83;21276;-40
2021/10/04 01:30:56;;;;;;;23.32;15.75;;;;;;;9.52;58.81;100604.55;1737783;81;21107;-40
2021/10/04 01:33:23;;;;;;;23.87;17.05;;;;;;;9.51;58.48;100606.22;1727345;83;21140;-40
2021/10/04 01:35:50;;;;;;;32.23;17.27;;;;;;;9.49;58.29;100607.08;1709504;83;20974;-40
2021/10/04 01:38:17;;;;;;;24.40;16.20;;;;;;;9.47;58.45;100608.78;1713555;83;21041;-40
2021/10/04 01:40:43;;;;;;;23.38;15.88;;;;;;;9.45;58.49;100610.20;1727979;82;21579;-40
2021/10/04 01:43:11;;;;;;;24.60;16.93;;;;;;;9.44;58.86;100614.05;1733171;82;21027;-40
2021/10/04 01:45:37;;;;;;;25.95;17.10;;;;;;;9.44;58.66;100618.88;1718403;83;22196;-40
2021/10/04 01:48:05;;;;;;;31.27;18.05;;;;;;;9.43;58.74;100617.87;1718706;82;20972;-40
2021/10/04 01:50:34;;;;;;;29.18;17.80;;;;;;;9.42;58.69;100623.03;1739279;82;21533;-40
2021/10/04 01:53:01;;;;;;;30.23;17.65;;;;;;;9.39;58.59;100625.04;1718525;83;21055;-40
2021/10/04 01:55:27;;;;;;;24.30;16.82;;;;;;;9.38;58.43;100624.80;1720087;82;22237;-40
2021/10/04 01:57:54;;;;;;;30.60;17.57;;;;;;;9.36;58.41;100622.95;1740406;82;21090;-40
2021/10/04 02:00:22;;;;;;;39.27;17.62;;;;;;;9.35;58.67;100626.77;1730557;82;20928;-40
2021/10/04 02:02:51;;;;;;;31.95;18.05;;;;;;;9.34;58.75;100630.61;1747353;82;21000;-40
2021/10/04 02:05:20;;;;;;;28.03;17.70;;;;;;;9.33;58.88;100626.31;1748674;82;21000;-40
2021/10/04 02:07:49;;;;;;;26.30;17.60;;;;;;;9.32;58.87;100622.01;1748513;80;21032;-41
2021/10/04 02:10:18;;;;;;;26.85;16.93;;;;;;;9.31;58.97;100621.77;1748330;82;21794;-40
2021/10/04 02:12:45;;;;;;;27.63;17.17;;;;;;;9.29;59.12;100618.59;1719346;82;20988;-41
2021/10/04 02:15:13;;;;;;;29.00;16.75;;;;;;;9.28;59.31;100616.45;1718393;83;21032;-40
2021/10/04 02:17:42;;;;;;;30.25;17.32;;;;;;;9.32;59.36;100628.77;1727087;82;21024;-40
2021/10/04 02:20:16;;;;;;;33.20;17.15;;;;;;;9.39;59.44;100624.45;1748165;82;21020;-40
2021/10/04 02:22:43;;;;;;;29.72;17.20;;;;;;;9.43;59.48;100628.69;1748569;82;21158;-40
2021/10/04 02:25:11;;;;;;;29.90;17.52;;;;;;;9.45;59.57;100625.09;1745587;82;21256;-40
2021/10/04 02:27:38;;;;;;;29.95;17.82;;;;;;;9.49;59.39;100628.73;1742790;82;21039;-40
2021/10/04 02:30:12;;;;;;;30.20;16.95;;;;;;;9.52;59.31;100622.70;1718434;83;21036;-40
2021/10/04 02:32:39;;;;;;;26.05;18.23;;;;;;;9.54;59.25;100629.92;1735286;80;21550;-40
2021/10/04 02:35:07;;;;;;;27.50;17.90;;;;;;;9.53;59.32;100627.80;1746420;82;21760;-40
2021/10/04 02:37:34;;;;;;;26.87;16.65;;;;;;;9.53;59.41;100631.06;1745614;82;21542;-41
2021/10/04 02:40:00;;;;;;;26.17;16.75;;;;;;;9.52;59.41;100630.83;1745953;82;21276;-40
2021/10/04 02:42:27;;;;;;;26.73;16.60;;;;;;;9.49;59.42;100630.09;1748364;82;21015;-40
2021/10/04 02:44:53;;;;;;;28.98;16.57;;;;;;;9.46;59.57;100637.52;1748085;82;21067;-40
2021/10/04 02:47:20;;;;;;;23.73;15.88;;;;;;;9.44;59.57;100627.00;1743454;82;21236;-41
2021/10/04 02:49:46;;;;;;;25.60;15.80;;;;;;;9.44;59.60;100623.52;1719971;82;21594;-40
2021/10/04 02:52:16;;;;;;;22.98;15.72;;;;;;;9.43;59.65;100631.40;1719237;82;21558;-40
2021/10/04 02:54:41;;;;;;;24.15;15.93;;;;;;;9.41;59.70;100629.56;1734195;80;21032;-41
2021/10/04 02:57:08;;;;;;;23.80;15.60;;;;;;;9.40;59.82;100630.66;1718783;83;21043;-41
2021/10/04 02:59:34;;;;;;;24.05;14.70;;;;;;;9.39;59.90;100637.98;1725749;82;21137;-41
2021/10/04 03:02:01;;;;;;;21.02;14.20;;;;;;;9.40;60.08;100642.84;1736143;81;21455;-41
2021/10/04 03:04:28;;;;;;;18.90;13.80;;;;;;;9.41;60.20;100645.24;1721275;82;21576;-40
2021/10/04 03:06:54;;;;;;;23.55;13.93;;;;;;;9.45;60.24;100641.33;1726336;80;21547;-40
2021/10/04 03:09:21;;;;;;;25.85;15.03;;;;;;;9.48;60.22;100648.83;1745484;80;21032;-40
2021/10/04 03:11:47;;;;;;;21.05;14.70;;;;;;;9.49;60.21;100647.69;1745760;82;21146;-40
2021/10/04 03:14:14;;;;;;;22.27;14.70;;;;;;;9.51;60.17;100644.11;1748378;82;22045;-40
2021/10/04 03:16:40;;;;;;;23.47;14.83;;;;;;;9.52;60.17;100645.16;1748461;81;21510;-40
2021/10/04 03:19:07;;;;;;;21.75;15.18;;;;;;;9.53;60.21;100640.55;1719376;82;21095;-40
2021/10/04 03:21:34;;;;;;;18.80;14.05;;;;;;;9.53;60.15;100633.77;1720773;80;21098;-40
2021/10/04 03:24:01;;;;;;;21.10;13.95;;;;;;;9.51;60.18;100645.47;1733882;82;21119;-40
2021/10/04 03:26:27;;;;;;;21.37;14.63;;;;;;;9.50;60.27;100643.87;1719543;82;20925;-40
2021/10/04 03:28:54;;;;;;;27.60;14.60;;;;;;;9.50;60.27;100643.31;1748295;82;21081;-40
2021/10/04 03:31:20;;;;;;;24.72;14.73;;;;;;;9.50;60.33;100639.81;1748381;82;21077;-40
2021/10/04 03:33:47;;;;;;;22.42;14.85;;;;;;;9.48;60.40;100638.00;1743050;80;21033;-40
2021/10/04 03:36:13;;;;;;;23.35;14.80;;;;;;;9.46;60.51;100630.75;1766165;80;21074;-40
2021/10/04 03:38:39;;;;;;;21.35;14.45;;;;;;;9.44;60.63;100633.00;1751870;81;21230;-40
2021/10/04 03:41:06;;;;;;;20.08;13.65;;;;;;;9.42;60.70;100636.02;1752303;80;20925;-40
2021/10/04 03:43:32;;;;;;;21.75;14.30;;;;;;;9.47;60.85;100636.41;1787621;80;21626;-40
2021/10/04 03:45:59;;;;;;;27.52;14.38;;;;;;;9.50;60.86;100646.02;1793756;79;20993;-40
2021/10/04 03:48:25;;;;;;;19.77;14.23;;;;;;;9.52;60.86;100639.75;1763352;80;21095;-40
2021/10/04 03:50:52;;;;;;;22.55;14.50;;;;;;;9.54;60.89;100643.46;1755918;81;20933;-40
2021/10/04 03:53:19;;;;;;;20.92;14.98;;;;;;;9.56;60.83;100646.66;1756018;81;21008;-40
2021/10/04 03:57:00;;;;;;;19.50;14.28;;;;;;;9.64;60.80;100658.02;1827153;78;22638;-40
2021/10/04 03:59:26;;;;;;;22.27;15.85;;;;;;;9.54;60.89;100657.80;1778215;79;21531;-40
2021/10/04 04:01:53;;;;;;;22.30;16.02;;;;;;;9.53;60.89;100664.35;1788765;79;21130;-40
2021/10/04 04:04:19;;;;;;;22.30;15.70;;;;;;;9.53;60.93;100671.67;1802528;79;20926;-40
2021/10/04 04:06:46;;;;;;;23.90;15.95;;;;;;;9.50;61.04;100664.97;1791730;78;21059;-40
2021/10/04 04:09:12;;;;;;;21.68;14.95;;;;;;;9.49;61.15;100659.88;1784756;78;20984;-40
2021/10/04 04:11:40;;;;;;;24.67;15.08;;;;;;;9.48;61.23;100661.01;1792511;79;20946;-40
2021/10/04 04:14:07;;;;;;;20.85;14.53;;;;;;;9.49;61.25;100669.34;1757162;81;21520;-40
2021/10/04 04:16:34;;;;;;;18.98;13.78;;;;;;;9.51;61.30;100675.25;1745628;82;20985;-40
2021/10/04 04:19:01;;;;;;;23.05;15.70;;;;;;;9.54;61.35;100680.01;1746617;81;20941;-40
2021/10/04 04:21:27;;;;;;;19.73;14.40;;;;;;;9.58;61.33;100676.34;1749020;81;20941;-40
2021/10/04 04:23:54;;;;;;;20.08;14.38;;;;;;;9.63;61.24;100675.41;1750766;82;21598;-40
2021/10/04 04:26:21;;;;;;;21.68;15.35;;;;;;;9.71;61.09;100680.00;1750553;82;21113;-40
2021/10/04 04:28:47;;;;;;;25.55;15.08;;;;;;;9.74;61.03;100682.06;1736784;80;21532;-40
2021/10/04 04:31:14;;;;;;;22.52;15.90;;;;;;;9.78;60.94;100680.30;1748770;80;20938;-40
2021/10/04 04:33:40;;;;;;;21.12;15.68;;;;;;;9.80;60.85;100678.63;1724093;82;21557;-40
2021/10/04 04:36:07;;;;;;;22.02;15.88;;;;;;;9.80;60.84;100679.42;1742335;81;21044;-40
2021/10/04 04:38:34;;;;;;;20.52;15.25;;;;;;;9.82;60.88;100678.56;1739396;82;21574;-40
2021/10/04 04:41:00;;;;;;;21.35;16.15;;;;;;;9.83;60.94;100687.45;1740097;80;20973;-40
2021/10/04 04:43:27;;;;;;;23.47;16.85;;;;;;;9.83;61.01;100681.48;1727065;82;21044;-40
2021/10/04 04:45:53;;;;;;;23.92;16.45;;;;;;;9.82;61.01;100690.75;1740047;82;21410;-40
2021/10/04 04:48:20;;;;;;;23.98;15.45;;;;;;;9.83;61.13;100688.81;1763137;81;21041;-40
2021/10/04 04:50:46;;;;;;;23.40;15.38;;;;;;;9.86;61.17;100687.63;1744893;82;21227;-40
2021/10/04 04:53:13;;;;;;;21.25;17.37;;;;;;;9.88;61.28;100688.08;1742772;81;21048;-40
2021/10/04 04:55:40;;;;;;;22.60;16.55;;;;;;;9.93;61.25;100686.56;1742896;82;21020;-40
2021/10/04 04:58:06;;;;;;;24.10;15.75;;;;;;;9.98;61.20;100688.30;1744795;82;21041;-40
2021/10/04 05:00:34;;;;;;;24.10;16.65;;;;;;;10.03;61.13;100687.57;1728077;82;21068;-40
2021/10/04 05:03:01;;;;;;;23.67;16.52;;;;;;;10.10;61.12;100682.22;1737193;82;21136;-40
2021/10/04 05:05:27;;;;;;;22.48;16.27;;;;;;;10.15;60.97;100680.14;1745751;80;21085;-40
2021/10/04 05:07:54;;;;;;;22.42;16.25;;;;;;;10.21;60.96;100680.23;1738415;82;21048;-40
2021/10/04 05:10:21;;;;;;;24.47;16.23;;;;;;;10.26;60.98;100684.09;1745560;82;20984;-40
2021/10/04 05:12:48;;;;;;;22.48;15.80;;;;;;;10.29;61.04;100685.38;1744435;82;21480;-40
2021/10/04 05:15:16;;;;;;;23.60;14.40;;;;;;;10.33;60.96;100684.39;1746425;82;21142;-40
2021/10/04 05:17:43;;;;;;;19.35;15.20;;;;;;;10.37;60.92;100688.59;1746379;82;21021;-40
2021/10/04 05:20:12;;;;;;;17.52;14.10;;;;;;;10.42;60.91;100684.35;1746469;82;20974;-40
2021/10/04 05:22:38;;;;;;;21.60;13.68;;;;;;;10.49;60.76;100686.01;1734506;82;21006;-40
2021/10/04 05:25:06;;;;;;;19.20;13.00;;;;;;;10.55;60.56;100677.93;1746400;82;21025;-40
2021/10/04 05:27:34;;;;;;;19.30;12.85;;;;;;;10.66;60.49;100672.91;1741134;81;21123;-41
2021/10/04 05:30:01;;;;;;;21.12;13.40;;;;;;;10.76;60.08;100667.11;1744326;82;21060;-40
2021/10/04 05:32:27;;;;;;;17.75;13.80;;;;;;;10.84;59.73;100669.75;1732097;81;20969;-40
2021/10/04 05:34:54;;;;;;;20.72;12.63;;;;;;;10.94;59.55;100670.52;1754386;81;21621;-40
2021/10/04 05:37:20;;;;;;;16.30;12.05;;;;;;;11.03;59.27;100673.41;1737890;82;20982;-40
2021/10/04 05:39:47;;;;;;;20.23;12.58;;;;;;;11.11;58.70;100675.81;1729990;82;21108;-40
2021/10/04 05:42:14;;;;;;;17.12;11.73;;;;;;;11.19;58.58;100680.38;1699429;83;20951;-40
2021/10/04 05:44:41;;;;;;;17.32;11.55;;;;;;;11.27;58.32;100683.05;1687951;83;20981;-40
2021/10/04 05:47:07;;;;;;;17.12;11.88;;;;;;;11.36;57.78;100685.69;1727999;81;21552;-40
2021/10/04 05:49:34;;;;;;;15.08;11.22;;;;;;;11.45;57.52;100689.11;1727866;82;21023;-40
2021/10/04 05:52:03;;;;;;;16.32;12.25;;;;;;;11.56;57.24;100697.09;1723578;82;21143;-40
2021/10/04 05:54:29;;;;;;;17.87;11.05;;;;;;;11.66;57.31;100699.41;1721489;82;20980;-40
2021/10/04 05:56:56;;;;;;;19.35;11.38;;;;;;;11.76;56.99;100701.70;1717295;82;21085;-40
2021/10/04 05:59:23;;;;;;;17.35;10.58;;;;;;;11.87;56.72;100708.88;1719995;83;21096;-40
2021/10/04 06:01:49;;;;;;;15.83;9.83;;;;;;;11.95;56.19;100708.58;1726347;82;21026;-40
2021/10/04 06:04:16;;;;;;;14.73;10.55;;;;;;;12.07;56.00;100704.52;1720116;82;21863;-40
2021/10/04 06:06:43;;;;;;;14.73;10.00;;;;;;;12.19;55.56;100697.77;1695134;83;20978;-41
2021/10/04 06:09:09;;;;;;;18.15;10.00;;;;;;;12.30;54.99;100697.53;1732179;80;21019;-41
2021/10/04 06:11:36;;;;;;;12.58;9.55;;;;;;;12.41;54.40;100695.17;1758924;80;20954;-41
2021/10/04 06:14:03;;;;;;;14.63;9.98;;;;;;;12.51;53.80;100698.80;1812875;78;21061;-41
2021/10/04 06:16:30;;;;;;;17.07;10.23;;;;;;;12.60;53.49;100697.56;1789484;79;21088;-41
2021/10/04 06:18:57;;;;;;;15.50;9.38;;;;;;;12.68;53.44;100699.16;1778664;79;21645;-41
2021/10/04 06:21:23;;;;;;;14.73;10.18;;;;;;;12.79;53.36;100694.83;1780394;80;21025;-41
2021/10/04 06:23:50;;;;;;;14.93;10.40;;;;;;;12.91;52.82;100694.27;1767807;80;20983;-41
2021/10/04 06:26:17;;;;;;;16.37;10.30;;;;;;;13.06;51.94;100698.22;1719904;83;21855;-41
2021/10/04 06:28:43;;;;;;;12.80;9.63;;;;;;;13.16;51.54;100698.34;1726633;82;21153;-41
2021/10/04 06:31:10;;;;;;;13.20;9.68;;;;;;;13.24;51.03;100694.11;1737417;82;21042;-41
2021/10/04 06:33:37;;;;;;;15.63;9.55;;;;;;;13.34;51.38;100692.27;1738256;80;21567;-41
2021/10/04 06:36:04;;;;;;;13.78;9.13;;;;;;;13.46;50.93;100689.48;1743915;82;21384;-41
2021/10/04 06:38:32;;;;;;;13.40;8.53;;;;;;;13.59;50.27;100697.63;1718624;82;21057;-41
2021/10/04 06:40:58;;;;;;;19.12;9.85;;;;;;;13.67;49.84;100692.59;1733641;82;20953;-41
2021/10/04 06:43:25;;;;;;;15.72;9.18;;;;;;;13.75;49.30;100698.45;1721158;82;21024;-41
2021/10/04 06:45:52;;;;;;;15.68;8.60;;;;;;;13.82;49.60;100696.73;1740924;82;21044;-41
2021/10/04 06:48:18;;;;;;;11.78;7.92;;;;;;;13.90;49.26;100701.22;1728219;82;20981;-41
2021/10/04 06:50:45;;;;;;;13.43;8.80;;;;;;;13.97;48.81;100695.17;1712561;82;21029;-41
2021/10/04 06:53:11;;;;;;;11.85;8.33;;;;;;;14.04;48.27;100703.52;1728084;82;21116;-41
2021/10/04 06:55:38;;;;;;;12.03;7.75;;;;;;;14.09;47.93;100705.20;1774757;80;21072;-41
2021/10/04 06:58:05;;;;;;;14.58;7.10;;;;;;;14.14;47.58;100707.10;1802269;77;20965;-41
2021/10/04 07:00:31;;;;;;;10.03;7.40;;;;;;;14.20;47.23;100711.73;1797883;77;21582;-41
2021/10/04 07:03:00;;;;;;;10.70;7.08;;;;;;;14.27;47.71;100713.30;1764792;81;21555;-41
2021/10/04 07:05:26;;;;;;;11.33;8.13;;;;;;;14.36;47.83;100712.58;1761527;79;21126;-41
2021/10/04 07:07:56;;;;;;;9.68;6.92;;;;;;;14.45;47.13;100709.67;1761721;80;21056;-41
2021/10/04 07:10:23;;;;;;;11.30;7.47;;;;;;;14.54;46.53;100708.34;1805674;79;20942;-41
2021/10/04 07:12:50;;;;;;;10.82;6.65;;;;;;;14.64;45.93;100704.28;1793024;79;21633;-41
2021/10/04 07:15:17;;;;;;;10.80;5.95;;;;;;;14.73;45.74;100707.05;1810102;79;20932;-41
2021/10/04 07:17:43;;;;;;;11.05;5.92;;;;;;;14.83;44.71;100707.65;1796432;79;22333;-41
2021/10/04 07:20:10;;;;;;;8.38;5.92;;;;;;;14.65;43.80;100674.48;1806266;78;20977;-41
2021/10/04 07:22:39;;;;;;;10.50;6.05;;;;;;;15.00;43.78;100712.17;1799368;79;20984;-41
2021/10/04 07:25:07;;;;;;;7.83;5.60;;;;;;;15.09;43.43;100712.76;1790917;78;20985;-41
2021/10/04 07:27:34;;;;;;;8.53;5.25;;;;;;;15.18;42.71;100710.61;1808046;79;21457;-41
2021/10/04 07:30:02;;;;;;;8.75;5.78;;;;;;;15.27;42.72;100706.30;1790622;78;21151;-41
2021/10/04 07:32:31;;;;;;;9.08;5.87;;;;;;;15.35;42.32;100708.59;1794163;79;21004;-41
2021/10/04 07:34:57;;;;;;;7.12;5.47;;;;;;;15.43;41.99;100703.52;1796937;77;21075;-41
2021/10/04 07:37:24;;;;;;;6.60;4.97;;;;;;;15.49;41.47;100711.05;1810332;79;21092;-41
2021/10/04 07:39:50;;;;;;;8.88;5.17;;;;;;;15.57;41.17;100714.20;1807207;79;21675;-41
2021/10/04 07:42:17;;;;;;;8.20;4.97;;;;;;;15.67;40.41;100711.46;1807960;79;21172;-41
2021/10/04 07:44:43;;;;;;;8.10;4.92;;;;;;;15.74;40.72;100714.89;1792075;79;21543;-41
2021/10/04 07:47:11;;;;;;;8.78;4.92;;;;;;;15.84;40.76;100713.73;1780879;79;20933;-41
2021/10/04 07:49:37;;;;;;;5.83;4.80;;;;;;;15.91;41.00;100716.62;1802170;79;21025;-41
2021/10/04 07:52:05;;;;;;;7.28;5.22;;;;;;;15.99;39.53;100716.95;1787152;79;21594;-41
2021/10/04 07:54:32;;;;;;;8.45;4.40;;;;;;;16.04;39.98;100713.92;1808409;79;21108;-41
2021/10/04 07:56:58;;;;;;;6.55;4.17;;;;;;;16.11;39.46;100718.75;1733881;82;20986;-41
2021/10/04 07:59:25;;;;;;;5.22;3.60;;;;;;;16.19;38.53;100717.71;1704726;82;21566;-41
2021/10/04 08:01:51;;;;;;;6.37;4.28;;;;;;;16.23;38.75;100715.03;1709335;83;21004;-43
2021/10/04 08:04:18;;;;;;;5.47;3.98;;;;;;;16.30;38.93;100711.06;1726309;81;21041;-43
2021/10/04 08:06:45;;;;;;;6.80;4.45;;;;;;;16.36;38.92;100713.72;1771483;79;21081;-42
2021/10/04 08:09:12;;;;;;;32.58;5.45;;;;;;;16.44;38.69;100714.04;1772803;80;21028;-42
2021/10/04 08:11:39;;;;;;;18.90;4.40;;;;;;;16.54;38.64;100710.69;1769941;80;21078;-43
2021/10/04 08:14:06;;;;;;;14.68;4.20;;;;;;;16.63;37.68;100708.52;1752046;80;21510;-42
2021/10/04 08:16:33;;;;;;;12.45;4.50;;;;;;;16.71;37.28;100704.72;1747772;79;21119;-42
2021/10/04 08:19:00;;;;;;;7.78;3.92;;;;;;;16.77;36.86;100704.63;1775564;80;21083;-42
2021/10/04 08:21:26;;;;;;;4.70;3.60;;;;;;;16.81;36.32;100709.57;1764710;80;21500;-42
2021/10/04 08:23:53;;;;;;;4.95;3.47;;;;;;;16.84;34.80;100707.48;1756201;80;21075;-42
2021/10/04 08:26:20;;;;;;;4.08;3.30;;;;;;;16.84;35.46;100710.22;1756844;80;21008;-43
2021/10/04 08:28:46;;;;;;;7.03;3.92;;;;;;;16.84;35.54;100707.48;1752856;80;21510;-43
2021/10/04 08:31:13;;;;;;;8.80;4.25;;;;;;;16.91;35.33;100706.78;1753685;80;21170;-42
2021/10/04 08:33:40;;;;;;;5.53;3.77;;;;;;;16.97;35.56;100709.42;1752821;80;21032;-42
2021/10/04 08:36:06;;;;;;;7.65;3.75;;;;;;;17.05;36.32;100706.19;1753967;80;21055;-42
2021/10/04 08:38:33;;;;;;;4.97;3.85;;;;;;;17.16;35.87;100707.93;1728890;80;21270;-42
2021/10/04 08:41:00;;;;;;;6.25;3.50;;;;;;;17.30;35.58;100711.44;1759847;80;21057;-42
2021/10/04 08:43:26;;;;;;;8.43;3.62;;;;;;;17.43;35.34;100703.78;1759781;80;21049;-42
2021/10/04 08:45:57;;;;;;;10.35;4.05;;;;;;;17.55;34.54;100716.66;1767438;80;20964;-43
2021/10/04 08:48:22;;;;;;;8.70;3.50;;;;;;;17.64;34.73;100714.45;1763020;80;21026;-42
2021/10/04 08:50:49;;;;;;;7.37;3.33;;;;;;;17.77;33.62;100714.97;1766641;80;21511;-43
2021/10/04 08:53:16;;;;;;;9.05;3.58;;;;;;;17.87;33.90;100712.14;1781327;80;21068;-43
2021/10/04 08:55:43;;;;;;;9.13;3.33;;;;;;;17.97;33.70;100715.58;1782649;80;21116;-43
2021/10/04 08:58:11;;;;;;;6.47;3.22;;;;;;;18.06;33.45;100724.30;1759592;80;21052;-43
2021/10/04 09:00:38;;;;;;;5.10;3.12;;;;;;;18.15;33.27;100723.44;1761111;80;21621;-42
2021/10/04 09:03:05;;;;;;;6.87;3.00;;;;;;;18.25;33.36;100726.84;1764705;80;20981;-43
2021/10/04 09:05:32;;;;;;;8.53;3.25;;;;;;;18.32;33.21;100722.80;1770593;80;21079;-43
2021/10/04 09:08:09;;;;;;;6.70;3.27;;;;;;;18.13;33.26;100680.47;1734242;80;21129;-43
2021/10/04 09:10:41;;;;;;;4.58;3.20;;;;;;;18.48;32.84;100732.17;1757875;80;21020;-43
2021/10/04 09:13:11;;;;;;;5.65;3.65;;;;;;;18.53;32.55;100731.82;1756138;80;21015;-43
2021/10/04 09:15:46;;;;;;;6.55;3.67;;;;;;;18.57;32.27;100728.55;1756823;80;21064;-43
2021/10/04 09:18:26;;;;;;;4.78;3.40;;;;;;;18.62;32.70;100737.23;1774564;80;21099;-43
2021/10/04 09:21:05;;;;;;;7.17;3.45;;;;;;;18.68;32.47;100730.80;1761075;80;21164;-43
2021/10/04 09:23:45;;;;;;;7.42;3.33;;;;;;;18.77;32.44;100731.26;1745220;80;21000;-43
2021/10/04 09:26:31;;;;;;;7.93;3.67;;;;;;;18.81;32.67;100725.78;1766017;80;20984;-43
2021/10/04 09:29:04;;;;;;;7.17;3.45;;;;;;;18.84;32.80;100719.52;1756697;80;21566;-43
2021/10/04 09:31:43;;;;;;;7.25;3.72;;;;;;;18.91;32.61;100709.95;1759249;80;21036;-43
2021/10/04 09:34:14;;;;;;;7.73;3.70;;;;;;;18.96;31.83;100707.64;1758277;80;21132;-43
2021/10/04 09:36:46;;;;;;;5.80;3.40;;;;;;;18.97;31.56;100698.23;1774930;80;21084;-43
2021/10/04 09:39:24;;;;;;;6.40;3.20;;;;;;;18.94;32.21;100695.44;1757507;80;21027;-43
2021/10/04 09:42:11;;;;;;;5.87;3.40;;;;;;;18.98;32.41;100692.13;1752924;80;21001;-42
2021/10/04 09:45:00;;;;;;;8.13;3.80;;;;;;;19.01;31.98;100692.75;1765425;80;21091;-43
2021/10/04 09:47:38;;;;;;;7.30;3.30;;;;;;;19.09;32.37;100691.61;1763888;80;21771;-43
2021/10/04 09:50:17;;;;;;;4.08;3.30;;;;;;;18.96;32.60;100654.05;1747962;80;20988;-43
2021/10/04 09:52:53;;;;;;;6.60;3.58;;;;;;;19.32;31.63;100687.98;1752603;78;20992;-43
2021/10/04 09:55:38;;;;;;;4.55;3.02;;;;;;;19.38;32.03;100690.57;1763213;78;21017;-43
2021/10/04 09:58:16;;;;;;;4.70;3.25;;;;;;;19.48;31.68;100687.11;1742658;81;21040;-43
2021/10/04 10:00:52;;;;;;;4.58;3.70;;;;;;;19.61;31.91;100681.25;1763810;80;22063;-43
2021/10/04 10:03:22;;;;;;;5.65;3.50;;;;;;;19.71;31.34;100679.91;1774805;79;20941;-43
2021/10/04 10:05:54;;;;;;;5.08;3.67;;;;;;;19.87;30.57;100676.22;1764205;80;21039;-43
2021/10/04 10:08:22;;;;;;;6.53;3.80;;;;;;;19.99;30.50;100673.70;1744279;82;21044;-43
2021/10/04 10:10:52;;;;;;;7.65;3.60;;;;;;;20.06;30.70;100665.44;1745645;80;21052;-43
2021/10/04 10:13:21;;;;;;;5.65;3.70;;;;;;;20.13;30.74;100658.57;1746651;78;21163;-43
2021/10/04 10:16:02;;;;;;;7.72;4.10;;;;;;;20.23;30.89;100661.92;1744481;80;20973;-43
2021/10/04 10:19:08;;;;;;;8.45;4.35;;;;;;;20.42;30.82;100661.35;1756424;80;21008;-43
2021/10/04 10:21:37;;;;;;;7.83;4.20;;;;;;;20.60;30.01;100655.23;1756308;80;21075;-43
2021/10/04 10:24:10;;;;;;;6.58;4.67;;;;;;;20.68;29.42;100657.57;1752155;80;21091;-43
2021/10/04 10:26:44;;;;;;;7.20;4.40;;;;;;;20.69;29.25;100647.34;1769342;80;21546;-43
2021/10/04 10:29:21;;;;;;;10.68;4.72;;;;;;;20.75;29.55;100654.03;1744370;80;21084;-43
2021/10/04 10:31:57;;;;;;;7.97;4.20;;;;;;;20.87;29.71;100648.08;1819380;78;21446;-43
2021/10/04 10:34:39;;;;;;;6.95;4.65;;;;;;;21.05;29.39;100650.22;1757855;78;21029;-43
2021/10/04 10:37:16;;;;;;;7.78;4.50;;;;;;;21.18;29.07;100651.38;1744833;80;20997;-44
2021/10/04 10:40:16;;;;;;;5.20;4.05;;;;;;;21.26;30.02;100647.98;1751513;80;21102;-44
2021/10/04 10:43:10;;;;;;;5.72;4.30;;;;;;;21.43;29.31;100650.48;1765377;80;21075;-44
2021/10/04 10:45:46;;;;;;;6.80;4.58;;;;;;;21.63;28.76;100647.43;1774164;80;21572;-44
2021/10/04 10:48:14;;;;;;;9.60;4.00;;;;;;;21.78;28.76;100640.64;1775228;80;21036;-44
2021/10/04 10:50:46;;;;;;;6.12;4.47;;;;;;;21.90;28.67;100642.91;1751501;80;21005;-44
2021/10/04 10:53:26;;;;;;;6.10;4.53;;;;;;;22.05;28.92;100651.31;1763331;80;20960;-44
2021/10/04 10:55:59;;;;;;;6.90;4.58;;;;;;;22.18;27.94;100639.77;1774051;80;20941;-44
2021/10/04 10:58:30;;;;;;;7.67;4.60;;;;;;;22.27;27.46;100641.49;1748608;80;21044;-44
2021/10/04 11:01:15;;;;;;;7.03;4.70;;;;;;;22.35;28.06;100642.40;1761609;80;21538;-44
2021/10/04 11:03:55;;;;;;;5.78;4.37;;;;;;;22.46;28.06;100644.45;1771679;80;20989;-44
2021/10/04 11:06:44;;;;;;;6.20;4.78;;;;;;;22.55;27.98;100635.70;1766988;80;21765;-44
2021/10/04 11:09:11;;;;;;;6.37;4.75;;;;;;;22.62;27.93;100634.23;1757623;80;21519;-44
2021/10/04 11:11:41;;;;;;;6.33;4.33;;;;;;;22.68;28.00;100640.90;1767485;78;20964;-44
2021/10/04 11:14:10;;;;;;;7.03;4.53;;;;;;;22.76;27.50;100631.36;1774719;80;20944;-44
2021/10/04 11:16:45;;;;;;;5.97;4.62;;;;;;;22.84;26.74;100627.94;1775092;80;21494;-44
2021/10/04 11:19:26;;;;;;;13.38;4.20;;;;;;;22.81;26.90;100628.14;1755503;80;21127;-44
2021/10/04 11:21:54;;;;;;;5.05;3.65;;;;;;;22.83;25.64;100634.05;1774826;80;21629;-43
2021/10/04 11:24:21;;;;;;;6.85;4.00;;;;;;;22.80;26.05;100628.58;1760262;80;20998;-44
2021/10/04 11:26:48;;;;;;;12.00;4.28;;;;;;;22.83;25.90;100631.89;1744942;80;21539;-44